createdAt,value
2019-03-25T00:02:45.963Z,101034.01
2019-03-25T00:07:48.645Z,101026.14
2019-03-25T00:12:51.411Z,101022.14
2019-03-25T00:17:54.399Z,101016.78
2019-03-25T00:22:57.160Z,101015.00
2019-03-25T00:28:01.879Z,101001.55
2019-03-25T00:33:04.561Z,100999.76
2019-03-25T00:38:07.435Z,101002.09
2019-03-25T00:43:10.111Z,101019.31
2019-03-25T00:48:12.992Z,100991.44
2019-03-25T00:53:15.633Z,101002.03
2019-03-25T00:58:18.378Z,100998.17
2019-03-25T01:03:21.312Z,100999.00
2019-03-25T01:08:23.977Z,101020.72
2019-03-25T01:13:26.695Z,101026.63
2019-03-25T01:18:29.586Z,101023.84
2019-03-25T01:23:32.158Z,101005.42
2019-03-25T01:28:34.783Z,101028.52
2019-03-25T01:33:37.413Z,100999.26
2019-03-25T01:38:40.054Z,100997.33
2019-03-25T01:43:42.794Z,100968.73
2019-03-25T01:48:45.468Z,100998.44
2019-03-25T01:53:48.191Z,100972.39
2019-03-25T01:58:50.932Z,100970.32
2019-03-25T02:03:53.631Z,100983.86
2019-03-25T02:08:56.547Z,100956.68
2019-03-25T02:13:59.363Z,100975.84
2019-03-25T02:19:02.436Z,100966.01
2019-03-25T02:24:05.146Z,100965.89
2019-03-25T02:29:07.840Z,100962.06
2019-03-25T02:34:10.552Z,100952.66
2019-03-25T02:39:13.594Z,100954.20
2019-03-25T02:44:16.374Z,100954.20
2019-03-25T02:49:19.137Z,100964.94
2019-03-25T02:54:22.198Z,100929.90
2019-03-25T02:59:24.941Z,100939.42
2019-03-25T03:04:27.675Z,100941.03
2019-03-25T03:09:30.452Z,100928.63
2019-03-25T03:14:34.196Z,100918.84
2019-03-25T03:19:36.890Z,100921.97
2019-03-25T03:24:39.739Z,100916.98
2019-03-25T03:29:42.482Z,100911.34
2019-03-25T03:34:47.143Z,100904.71
2019-03-25T03:39:50.595Z,100890.88
2019-03-25T03:44:53.322Z,100897.38
2019-03-25T03:49:56.347Z,100863.38
2019-03-25T03:54:59.792Z,100864.75
2019-03-25T04:00:02.557Z,100864.42
2019-03-25T04:05:05.462Z,100880.30
2019-03-25T04:10:08.266Z,100880.36
2019-03-25T04:15:14.629Z,100870.02
2019-03-25T04:20:17.264Z,100871.89
2019-03-25T04:25:20.160Z,100826.31
2019-03-25T04:30:22.733Z,100845.20
2019-03-25T04:35:25.374Z,100838.03
2019-03-25T04:40:29.137Z,100844.84
2019-03-25T04:45:31.784Z,100846.02
2019-03-25T04:50:34.374Z,100838.32
2019-03-25T04:55:37.110Z,100818.38
2019-03-25T05:00:39.798Z,100810.26
2019-03-25T05:05:42.446Z,100814.42
2019-03-25T05:10:45.063Z,100812.99
2019-03-25T05:15:47.711Z,100809.19
2019-03-25T05:20:50.346Z,100809.05
2019-03-25T05:25:52.964Z,100797.53
2019-03-25T05:30:55.795Z,100804.78
2019-03-25T05:35:58.794Z,100807.91
2019-03-25T05:41:01.519Z,100812.41
2019-03-25T05:46:04.186Z,100790.91
2019-03-25T05:51:06.896Z,100793.91
2019-03-25T05:56:09.799Z,100809.11
2019-03-25T06:01:12.592Z,100813.36
2019-03-25T06:06:15.315Z,100792.92
2019-03-25T06:11:17.947Z,100799.02
2019-03-25T06:16:21.128Z,100788.95
2019-03-25T06:21:23.808Z,100778.86
2019-03-25T06:26:26.388Z,100758.73
2019-03-25T06:31:29.024Z,100763.57
2019-03-25T06:36:31.722Z,100770.80
2019-03-25T06:41:34.476Z,100773.56
2019-03-25T06:46:37.060Z,100764.56
2019-03-25T06:51:39.759Z,100793.25
2019-03-25T06:56:42.495Z,100783.65
2019-03-25T07:01:45.620Z,100786.46
2019-03-25T07:06:48.268Z,100785.31
2019-03-25T07:11:51.096Z,100778.30
2019-03-25T07:16:54.260Z,100783.89
2019-03-25T07:21:56.905Z,100790.21
2019-03-25T07:26:59.540Z,100794.22
2019-03-25T07:32:02.251Z,100795.11
2019-03-25T07:37:04.898Z,100800.84
2019-03-25T07:42:07.525Z,100819.30
2019-03-25T07:47:10.106Z,100814.55
2019-03-25T07:52:12.751Z,100828.24
2019-03-25T07:57:15.474Z,100835.09
2019-03-25T08:02:18.146Z,100843.30
2019-03-25T08:07:20.802Z,100855.78
2019-03-25T08:12:23.742Z,100842.20
2019-03-25T08:17:26.435Z,100840.40
2019-03-25T08:22:29.120Z,100838.06
2019-03-25T08:27:31.782Z,100828.17
2019-03-25T08:32:34.594Z,100826.39
2019-03-25T08:37:37.204Z,100826.98
2019-03-25T08:42:39.813Z,100828.86
2019-03-25T08:47:42.721Z,100830.47
2019-03-25T08:52:45.629Z,100839.34
2019-03-25T08:57:48.290Z,100832.99
2019-03-25T09:02:50.869Z,100841.63
2019-03-25T09:07:53.543Z,100830.92
2019-03-25T09:12:56.300Z,100847.13
2019-03-25T09:17:59.119Z,100860.08
2019-03-25T09:23:01.779Z,100843.63
2019-03-25T09:28:04.486Z,100845.89
2019-03-25T09:33:07.341Z,100827.99
2019-03-25T09:38:09.948Z,100847.79
2019-03-25T09:43:12.550Z,100846.95
2019-03-25T09:48:15.559Z,100834.76
2019-03-25T09:53:18.209Z,100831.28
2019-03-25T09:58:20.875Z,100848.16
2019-03-25T10:03:23.725Z,100851.06
2019-03-25T10:08:26.476Z,100841.24
2019-03-25T10:13:31.175Z,100840.29
2019-03-25T10:18:33.807Z,100831.74
2019-03-25T10:23:36.409Z,100845.62
2019-03-25T10:28:48.442Z,100843.05
2019-03-25T10:33:45.383Z,100858.66
2019-03-25T10:38:48.201Z,100881.52
2019-03-25T10:43:50.854Z,100902.65
2019-03-25T10:48:53.627Z,100894.55
2019-03-25T10:53:56.334Z,100883.73
2019-03-25T10:58:59.009Z,100865.91
2019-03-25T11:04:01.698Z,100852.28
2019-03-25T11:09:06.566Z,100863.02
2019-03-25T11:14:09.596Z,100886.72
2019-03-25T11:19:12.213Z,100871.88
2019-03-25T11:24:15.258Z,100868.45
2019-03-25T11:29:18.274Z,100888.12
2019-03-25T11:34:20.921Z,100851.54
2019-03-25T11:39:23.713Z,100863.16
2019-03-25T11:44:26.602Z,100859.94
2019-03-25T11:49:29.246Z,100856.18
2019-03-25T11:54:32.144Z,100854.00
2019-03-25T11:59:34.963Z,100849.05
2019-03-25T12:04:37.898Z,100865.16
2019-03-25T12:09:41.605Z,100867.91
2019-03-25T12:14:44.421Z,100861.77
2019-03-25T12:19:47.116Z,100843.91
2019-03-25T12:24:49.731Z,100842.19
2019-03-25T12:29:52.324Z,100869.14
2019-03-25T12:34:54.987Z,100843.27
2019-03-25T12:39:57.706Z,100830.23
2019-03-25T12:45:00.766Z,100874.53
2019-03-25T12:50:03.986Z,100866.08
2019-03-25T12:55:06.783Z,100874.31
2019-03-25T13:00:10.569Z,100854.20
2019-03-25T13:05:13.749Z,100845.40
2019-03-25T13:10:16.734Z,100822.75
2019-03-25T13:15:19.385Z,100840.11
2019-03-25T13:20:23.042Z,100861.09
2019-03-25T13:25:25.733Z,100891.89
2019-03-25T13:30:28.677Z,100911.69
2019-03-25T13:35:31.306Z,100931.41
2019-03-25T13:40:34.378Z,100932.28
2019-03-25T13:45:37.141Z,100916.08
2019-03-25T13:50:39.843Z,100904.20
2019-03-25T13:55:42.429Z,100915.88
2019-03-25T14:00:45.222Z,100917.97
2019-03-25T14:05:47.942Z,100911.22
2019-03-25T14:10:50.753Z,100915.02
2019-03-25T14:15:53.942Z,100927.19
2019-03-25T14:20:56.530Z,100878.13
2019-03-25T14:25:59.346Z,100887.48
2019-03-25T14:31:01.975Z,100891.16
2019-03-25T14:36:04.855Z,100912.97
2019-03-25T14:41:07.942Z,100901.19
2019-03-25T14:46:10.670Z,100900.83
2019-03-25T14:51:13.340Z,100916.55
2019-03-25T14:56:16.186Z,100931.06
2019-03-25T15:01:20.126Z,100926.66
2019-03-25T15:06:22.761Z,100897.39
2019-03-25T15:11:25.390Z,100937.94
2019-03-25T15:16:28.030Z,100945.11
2019-03-25T15:21:31.058Z,100937.52
2019-03-25T15:26:43.891Z,100953.48
2019-03-25T15:32:00.757Z,100939.80
2019-03-25T15:37:03.662Z,100950.97
2019-03-25T15:42:06.380Z,100934.52
2019-03-25T15:47:28.668Z,100940.69
2019-03-25T15:52:31.447Z,100939.67
2019-03-25T15:57:34.150Z,100936.09
2019-03-25T16:02:36.863Z,100931.12
2019-03-25T16:07:39.596Z,100964.42
2019-03-25T16:12:42.618Z,100965.13
2019-03-25T16:17:45.293Z,100963.31
2019-03-25T16:22:47.957Z,100963.62
2019-03-25T16:27:50.670Z,100991.09
2019-03-25T16:32:53.386Z,100979.16
2019-03-25T16:37:56.311Z,100994.58
2019-03-25T16:42:59.307Z,101003.55
2019-03-25T16:48:02.001Z,101006.48
2019-03-25T16:53:04.800Z,101021.25
2019-03-25T16:58:07.507Z,101018.59
2019-03-25T17:03:10.513Z,101020.13
2019-03-25T17:08:13.258Z,101017.34
2019-03-25T17:13:15.938Z,101032.44
2019-03-25T17:18:18.841Z,101026.14
2019-03-25T17:23:21.442Z,101047.14
2019-03-25T17:28:24.677Z,101042.50
2019-03-25T17:33:27.586Z,101053.08
2019-03-25T17:38:30.320Z,101073.24
2019-03-25T17:43:32.972Z,101077.94
2019-03-25T17:48:35.881Z,101079.97
2019-03-25T17:53:38.544Z,101080.48
2019-03-25T17:58:41.420Z,101076.27
2019-03-25T18:03:44.211Z,101083.86
2019-03-25T18:08:47.076Z,101097.28
2019-03-25T18:13:49.676Z,101101.80
2019-03-25T18:18:52.278Z,101119.62
2019-03-25T18:23:55.119Z,101131.23
2019-03-25T18:28:57.777Z,101136.22
2019-03-25T18:34:00.460Z,101149.77
2019-03-25T18:39:05.328Z,101172.16
2019-03-25T18:44:08.106Z,101180.79
2019-03-25T18:49:10.740Z,101190.55
2019-03-25T18:54:13.346Z,101192.70
2019-03-25T18:59:16.226Z,101210.06
2019-03-25T19:04:18.905Z,101205.00
2019-03-25T19:09:21.562Z,101218.36
2019-03-25T19:14:24.298Z,101213.58
2019-03-25T19:19:27.249Z,101231.99
2019-03-25T19:24:30.282Z,101232.95
2019-03-25T19:29:32.972Z,101241.02
2019-03-25T19:34:35.743Z,101245.03
2019-03-25T19:39:38.735Z,101249.91
2019-03-25T19:44:41.438Z,101255.28
2019-03-25T19:49:44.031Z,101267.17
2019-03-25T19:54:46.663Z,101266.50
2019-03-25T19:59:49.382Z,101280.30
2019-03-25T20:04:52.066Z,101296.39
2019-03-25T20:09:54.782Z,101298.81
2019-03-25T20:14:57.427Z,101307.02
2019-03-25T20:20:00.405Z,101316.72
2019-03-25T20:25:04.617Z,101330.70
2019-03-25T20:30:07.484Z,101336.13
2019-03-25T20:35:10.364Z,101349.78
2019-03-25T20:40:13.291Z,101353.14
2019-03-25T20:45:18.332Z,101357.70
2019-03-25T20:50:20.974Z,101366.08
2019-03-25T20:55:24.248Z,101376.39
2019-03-25T21:00:45.376Z,101385.27
2019-03-25T21:05:52.529Z,101389.61
2019-03-25T21:10:55.424Z,101398.12
2019-03-25T21:15:58.218Z,101399.81
2019-03-25T21:21:01.017Z,101409.52
2019-03-25T21:26:03.783Z,101426.87
2019-03-25T21:31:06.604Z,101422.98
2019-03-25T21:36:09.290Z,101426.91
2019-03-25T21:41:11.987Z,101435.70
2019-03-25T21:46:14.734Z,101450.66
2019-03-25T21:51:17.439Z,101446.23
2019-03-25T21:56:20.112Z,101457.56
2019-03-25T22:01:23.460Z,101462.44
2019-03-25T22:06:26.152Z,101451.56
2019-03-25T22:11:28.817Z,101465.91
2019-03-25T22:16:31.470Z,101477.77
2019-03-25T22:21:34.157Z,101481.20
2019-03-25T22:26:36.797Z,101479.58
2019-03-25T22:31:39.466Z,101490.87
2019-03-25T22:36:42.340Z,101485.99
2019-03-25T22:41:45.012Z,101489.92
2019-03-25T22:46:47.642Z,101487.27
2019-03-25T22:51:50.295Z,101491.61
2019-03-25T22:56:52.951Z,101505.25
2019-03-25T23:01:55.658Z,101501.70
2019-03-25T23:06:58.379Z,101513.64
2019-03-25T23:12:01.061Z,101504.45
2019-03-25T23:17:03.930Z,101508.77
2019-03-25T23:22:06.734Z,101521.57
2019-03-25T23:27:09.419Z,101530.45
2019-03-25T23:32:12.051Z,101533.62
2019-03-25T23:37:15.119Z,101528.04
2019-03-25T23:42:17.768Z,101527.25
2019-03-25T23:47:20.731Z,101542.37
2019-03-25T23:52:23.445Z,101530.98
2019-03-25T23:57:26.373Z,101532.78
